Time;durP1;ratioP1;P1;durP2;ratioP2;P2;SDS_P1;SDS_P2;PMS_P1;PMS_P2;Temp;Humidity;BMP_temperature;BMP_pressure;BME280_temperature;BME280_humidity;BME280_pressure;Samples;Min_cycle;Max_cycle;Signal;HPM_P1;HPM_P2
2023/09/05 00:01:58;;;;;;;1.60;1.40;;;18.20;99.90;;;18.67;100.00;101458.38;5204574;28;20046;-51
2023/09/05 00:04:31;;;;;;;2.33;1.65;;;18.20;99.90;;;18.64;100.00;101455.63;5203806;28;20081;-51
2023/09/05 00:07:03;;;;;;;2.60;1.40;;;18.20;99.90;;;18.62;100.00;101460.03;5201659;28;20080;-52
2023/09/05 00:09:36;;;;;;;1.77;1.55;;;18.20;99.90;;;18.60;100.00;101453.84;5199920;28;20049;-51
2023/09/05 00:12:10;;;;;;;2.42;1.60;;;18.10;99.90;;;18.58;100.00;101437.09;5216345;28;20042;-51
2023/09/05 00:14:42;;;;;;;2.28;1.48;;;18.10;99.90;;;18.57;100.00;101448.50;5203663;28;20753;-52
2023/09/05 00:17:15;;;;;;;2.03;1.38;;;18.10;99.90;;;18.55;100.00;101447.63;5195416;28;20057;-51
2023/09/05 00:19:47;;;;;;;2.20;1.52;;;18.10;99.90;;;18.52;100.00;101436.13;5203731;28;20510;-50
2023/09/05 00:22:21;;;;;;;1.70;1.60;;;18.10;99.90;;;18.51;100.00;101443.16;5203117;28;20104;-52
2023/09/05 00:24:53;;;;;;;2.85;1.85;;;18.10;99.90;;;18.47;100.00;101436.09;5204684;28;20536;-50
2023/09/05 00:27:27;;;;;;;2.08;1.80;;;18.00;99.90;;;18.45;100.00;101432.50;5220337;28;20065;-51
2023/09/05 00:29:59;;;;;;;2.05;1.60;;;18.00;99.90;;;18.42;100.00;101429.84;5202868;28;20430;-51
2023/09/05 00:32:32;;;;;;;2.50;1.67;;;18.00;99.90;;;18.40;100.00;101427.19;5203021;28;20053;-51
2023/09/05 00:35:06;;;;;;;2.08;1.65;;;18.00;99.90;;;18.38;100.00;101430.66;5200585;28;20041;-52
2023/09/05 00:37:39;;;;;;;1.77;1.60;;;17.90;99.90;;;18.36;100.00;101427.13;5203049;28;20041;-53
2023/09/05 00:40:12;;;;;;;2.38;1.40;;;17.90;99.90;;;18.35;100.00;101422.72;5202187;28;20392;-52
2023/09/05 00:42:46;;;;;;;2.72;1.95;;;17.90;99.90;;;18.32;100.00;101427.94;5202832;28;20503;-51
2023/09/05 00:45:18;;;;;;;3.28;1.75;;;17.90;99.90;;;18.28;100.00;101427.03;5202757;28;20045;-51
2023/09/05 00:47:51;;;;;;;3.30;1.77;;;17.90;99.90;;;18.31;100.00;101423.53;5199381;28;20053;-51
2023/09/05 00:50:24;;;;;;;2.45;1.65;;;17.90;99.90;;;18.34;100.00;101431.50;5204135;28;20095;-51
2023/09/05 00:52:56;;;;;;;2.72;1.60;;;17.80;99.90;;;18.39;100.00;101432.47;5198981;28;20081;-52
2023/09/05 00:55:29;;;;;;;2.45;1.50;;;17.90;99.90;;;18.40;100.00;101427.19;5202787;28;20063;-52
2023/09/05 00:58:03;;;;;;;1.90;1.40;;;17.90;99.90;;;18.41;100.00;101422.81;5202574;28;20049;-51
2023/09/05 01:00:39;;;;;;;3.17;1.70;;;18.00;99.90;;;18.45;100.00;101419.31;5202487;28;20057;-52
2023/09/05 01:03:11;;;;;;;3.35;1.88;;;18.00;99.90;;;18.49;100.00;101415.84;5200804;28;20061;-50
2023/09/05 01:05:48;;;;;;;3.15;1.80;;;18.00;99.90;;;18.55;100.00;101421.22;5202677;28;20049;-52
2023/09/05 01:08:28;;;;;;;2.67;1.80;;;18.10;99.90;;;18.62;100.00;101417.78;5201950;28;20045;-51
2023/09/05 01:11:08;;;;;;;2.45;1.80;;;18.20;99.90;;;18.71;100.00;101422.28;5198844;28;20072;-51
2023/09/05 01:13:42;;;;;;;2.03;1.52;;;18.30;99.90;;;18.81;100.00;101418.91;5198718;28;20071;-51
2023/09/05 01:16:14;;;;;;;3.10;1.80;;;18.40;99.90;;;18.91;100.00;101419.91;5217354;28;20081;-51
2023/09/05 01:18:47;;;;;;;1.85;1.40;;;18.50;99.90;;;19.00;100.00;101417.34;5198621;28;20046;-51
2023/09/05 01:21:30;;;;;;;2.92;1.60;;;18.60;99.90;;;19.07;100.00;101415.66;5217301;28;20264;-51
2023/09/05 01:24:15;;;;;;;1.90;1.50;;;18.70;99.90;;;19.14;100.00;101414.84;5191154;28;20104;-52
2023/09/05 01:26:51;;;;;;;4.57;1.58;;;18.80;99.90;;;19.22;100.00;101416.66;5194430;28;20049;-53
2023/09/05 01:29:29;;;;;;;2.55;1.70;;;18.90;99.90;;;19.28;100.00;101420.25;5201733;28;20042;-52
2023/09/05 01:32:03;;;;;;;2.90;1.50;;;18.90;99.90;;;19.31;99.47;101415.00;5200752;28;20132;-51
2023/09/05 01:34:36;;;;;;;4.22;1.60;;;19.00;99.90;;;19.36;98.99;101402.69;5198375;28;20399;-52
2023/09/05 01:37:10;;;;;;;2.95;1.55;;;19.10;99.90;;;19.42;99.21;101408.03;5208213;28;20041;-51
2023/09/05 01:39:44;;;;;;;2.20;1.45;;;19.00;99.90;;;19.47;98.76;101406.31;5198253;28;20085;-51
2023/09/05 01:42:16;;;;;;;4.15;1.70;;;19.10;99.90;;;19.52;98.03;101404.59;5216546;28;20045;-50
2023/09/05 01:44:49;;;;;;;1.90;1.48;;;19.20;99.90;;;19.60;97.86;101397.63;5202320;28;20410;-51
2023/09/05 01:47:21;;;;;;;2.35;1.35;;;19.20;99.90;;;19.67;97.72;101409.13;5201026;28;20502;-51
2023/09/05 01:49:54;;;;;;;2.05;1.73;;;19.30;99.90;;;19.71;97.11;101395.97;5198114;28;20045;-51
2023/09/05 01:52:26;;;;;;;2.92;1.48;;;19.40;99.90;;;19.76;96.02;101396.88;5218049;28;20081;-51
2023/09/05 01:55:00;;;;;;;3.33;1.60;;;19.40;99.90;;;19.84;96.23;101396.94;5197919;28;20100;-52
2023/09/05 01:57:32;;;;;;;2.10;1.55;;;19.50;99.90;;;19.87;94.95;101396.03;5201863;28;20041;-53
2023/09/05 02:00:06;;;;;;;2.10;1.50;;;19.50;99.90;;;19.94;95.61;101392.56;5201739;28;20410;-51
2023/09/05 02:02:46;;;;;;;3.20;1.50;;;19.60;99.90;;;19.97;94.33;101392.59;5202905;28;20413;-51
2023/09/05 02:05:18;;;;;;;1.92;1.25;;;19.60;99.90;;;20.03;93.80;101392.63;5201058;28;20417;-52
2023/09/05 02:07:50;;;;;;;1.80;1.30;;;19.70;99.90;;;20.06;92.72;101397.94;5197911;28;20050;-51
2023/09/05 02:10:24;;;;;;;3.03;1.42;;;19.70;99.90;;;20.09;92.35;101392.66;5217596;28;20053;-51
2023/09/05 02:12:57;;;;;;;2.80;1.60;;;19.80;99.90;;;20.12;93.31;101389.13;5200624;28;20041;-50
2023/09/05 02:15:29;;;;;;;2.63;1.45;;;19.80;99.90;;;20.14;92.66;101388.25;5197223;28;20508;-52
2023/09/05 02:18:06;;;;;;;1.98;1.55;;;19.80;99.90;;;20.17;93.17;101388.28;5214190;28;20046;-51
2023/09/05 02:20:42;;;;;;;2.72;1.40;;;19.80;99.90;;;20.14;91.81;101380.31;5201583;28;20061;-53
2023/09/05 02:23:14;;;;;;;3.75;1.60;;;19.80;99.80;;;20.15;91.92;101376.81;5200559;28;20537;-52
2023/09/05 02:25:57;;;;;;;2.55;1.30;;;19.80;99.90;;;20.16;91.90;101386.53;5201603;28;20064;-51
2023/09/05 02:28:30;;;;;;;4.72;1.70;;;19.90;99.90;;;20.15;91.69;101381.19;5189390;28;20041;-51
2023/09/05 02:31:06;;;;;;;2.92;1.50;;;19.80;99.70;;;20.16;91.76;101386.53;5197159;28;20061;-51
2023/09/05 02:33:38;;;;;;;3.05;1.55;;;19.90;99.80;;;20.17;92.78;101380.34;5197718;28;20037;-50
2023/09/05 02:36:15;;;;;;;2.13;1.50;;;19.80;99.90;;;20.15;91.90;101384.75;5215388;28;20046;-50
2023/09/05 02:38:47;;;;;;;2.00;1.75;;;19.80;99.70;;;20.15;91.98;101387.41;5201155;28;20059;-50
2023/09/05 02:41:21;;;;;;;1.98;1.48;;;19.80;99.70;;;20.11;91.60;101385.59;5199410;28;20049;-52
2023/09/05 02:43:54;;;;;;;2.80;1.83;;;19.80;99.50;;;20.10;91.74;101389.13;5197360;28;20682;-52
2023/09/05 02:46:26;;;;;;;2.33;1.58;;;19.80;99.60;;;20.08;91.49;101396.16;5217222;28;20037;-52
2023/09/05 02:48:59;;;;;;;1.90;1.45;;;19.80;99.50;;;20.09;91.63;101392.66;5196964;28;20054;-51
2023/09/05 02:51:31;;;;;;;3.20;1.60;;;19.70;99.60;;;20.09;92.32;101384.72;5200501;28;20100;-50
2023/09/05 02:54:04;;;;;;;2.47;1.45;;;19.80;99.80;;;20.06;91.84;101384.69;5200706;28;20045;-52
2023/09/05 02:56:41;;;;;;;1.95;1.52;;;19.70;99.50;;;20.06;91.87;101397.94;5197310;28;20053;-52
2023/09/05 02:59:14;;;;;;;2.10;1.50;;;19.70;99.60;;;20.05;91.90;101391.75;5215236;28;20053;-53
2023/09/05 03:01:46;;;;;;;1.35;1.10;;;19.70;99.60;;;20.04;91.68;101391.75;5197466;28;20054;-52
2023/09/05 03:04:19;;;;;;;3.22;1.40;;;19.70;99.50;;;20.00;91.94;101393.47;5218942;28;20067;-51
2023/09/05 03:06:51;;;;;;;2.28;1.30;;;19.70;99.50;;;19.99;91.80;101396.13;5201543;28;20141;-52
2023/09/05 03:09:24;;;;;;;2.17;1.70;;;19.60;99.50;;;19.95;91.54;101403.19;5220650;28;20073;-51
2023/09/05 03:11:58;;;;;;;2.22;1.50;;;19.60;99.40;;;19.96;91.68;101398.78;5204232;28;20052;-52
2023/09/05 03:14:30;;;;;;;1.98;1.30;;;19.60;99.50;;;19.96;91.72;101393.47;5192695;28;20068;-51
2023/09/05 03:17:04;;;;;;;1.92;1.45;;;19.60;99.50;;;19.95;91.82;101397.88;5200999;28;20124;-51
2023/09/05 03:19:39;;;;;;;1.88;1.52;;;19.60;99.50;;;19.93;92.24;101393.44;5204708;28;20498;-51
2023/09/05 03:22:11;;;;;;;2.53;1.33;;;19.60;99.60;;;19.92;92.04;101383.75;5201303;28;20526;-53
2023/09/05 03:24:47;;;;;;;1.80;1.20;;;19.60;99.60;;;19.89;92.11;101373.16;5204511;28;20041;-51
2023/09/05 03:27:20;;;;;;;2.08;1.60;;;19.60;99.60;;;19.84;92.19;101388.09;5205761;28;20038;-52
2023/09/05 03:29:53;;;;;;;2.78;1.45;;;19.50;99.50;;;19.79;92.40;101375.72;5204911;28;20049;-51
2023/09/05 03:32:25;;;;;;;3.13;1.50;;;19.50;99.50;;;19.77;92.62;101379.25;5203306;28;20041;-50
2023/09/05 03:34:57;;;;;;;3.20;1.50;;;19.50;99.60;;;19.77;92.66;101384.53;5200387;28;20402;-51
2023/09/05 03:37:30;;;;;;;3.00;1.92;;;19.50;99.60;;;19.78;92.45;101389.84;5220898;28;20049;-52
2023/09/05 03:40:03;;;;;;;2.08;1.40;;;19.50;99.60;;;19.79;92.67;101391.59;5200130;28;20046;-51
2023/09/05 03:42:38;;;;;;;2.60;1.40;;;19.50;99.90;;;19.79;92.89;101383.66;5200178;28;20054;-51
2023/09/05 03:45:13;;;;;;;2.00;1.58;;;19.50;99.70;;;19.79;91.92;101388.94;5217574;28;20053;-51
2023/09/05 03:47:45;;;;;;;1.80;1.50;;;19.50;99.40;;;19.79;92.03;101388.94;5204286;28;20041;-50
2023/09/05 03:50:18;;;;;;;2.92;1.73;;;19.50;99.40;;;19.78;91.97;101381.00;5205135;28;20493;-50
2023/09/05 03:52:56;;;;;;;2.33;1.55;;;19.50;99.40;;;19.78;91.51;101384.53;5199959;28;20046;-52
2023/09/05 03:55:30;;;;;;;2.88;1.52;;;19.50;99.20;;;19.79;91.33;101378.38;5220162;28;20049;-50
2023/09/05 03:58:05;;;;;;;2.58;1.70;;;19.50;99.10;;;19.82;92.42;101379.25;5203960;28;20474;-51
2023/09/05 04:00:38;;;;;;;1.27;1.15;;;19.50;99.50;;;19.85;92.40;101380.16;5192696;28;20454;-51
2023/09/05 04:03:11;;;;;;;1.75;1.30;;;19.50;99.50;;;19.87;91.46;101375.75;5216734;28;20145;-51
2023/09/05 04:05:43;;;;;;;3.58;2.03;;;19.50;99.20;;;19.88;91.52;101371.34;5204118;28;20049;-52
2023/09/05 04:08:15;;;;;;;1.20;1.10;;;19.50;99.20;;;19.88;91.46;101366.06;5203562;28;20313;-52
2023/09/05 04:10:48;;;;;;;2.88;1.75;;;19.60;99.20;;;19.90;90.70;101375.81;5203629;28;20138;-51
2023/09/05 04:13:21;;;;;;;2.85;1.20;;;19.60;99.00;;;19.95;90.48;101389.03;5202614;28;20387;-51
2023/09/05 04:15:54;;;;;;;2.00;1.50;;;19.60;98.80;;;20.00;90.26;101371.44;5205035;28;20081;-51
2023/09/05 04:18:26;;;;;;;3.50;1.58;;;19.60;98.70;;;20.02;90.16;101375.00;5202919;28;20037;-51
2023/09/05 04:20:59;;;;;;;2.08;1.33;;;19.70;98.70;;;20.03;90.25;101366.16;5203190;28;20056;-51
2023/09/05 04:23:31;;;;;;;2.92;1.60;;;19.70;98.80;;;20.04;90.07;101368.81;5202942;28;20037;-51
2023/09/05 04:26:04;;;;;;;2.00;1.40;;;19.70;98.60;;;20.05;89.53;101375.00;5203188;28;20038;-50
2023/09/05 04:28:38;;;;;;;1.95;1.52;;;19.70;98.40;;;20.09;89.17;101386.50;5196977;28;20100;-51
2023/09/05 04:31:10;;;;;;;1.95;1.35;;;19.70;98.30;;;20.11;89.95;101380.31;5199239;28;20155;-51
2023/09/05 04:33:43;;;;;;;2.95;1.55;;;19.80;98.50;;;20.10;89.73;101385.59;5203510;28;20107;-51
2023/09/05 04:36:15;;;;;;;2.22;1.52;;;19.80;98.40;;;20.10;89.95;101386.50;5203085;28;20049;-52
2023/09/05 04:38:49;;;;;;;3.83;1.90;;;19.70;98.50;;;20.08;88.79;101385.56;5194713;28;20476;-51
2023/09/05 04:41:22;;;;;;;2.13;1.50;;;19.70;98.00;;;20.08;89.07;101385.56;5200635;28;20131;-52
2023/09/05 04:43:55;;;;;;;2.70;1.38;;;19.70;98.10;;;20.09;89.16;101387.38;5191098;28;20073;-51
2023/09/05 04:46:37;;;;;;;2.70;1.60;;;19.80;98.20;;;20.11;89.09;101390.91;5202397;28;20048;-51
2023/09/05 04:49:13;;;;;;;2.00;1.38;;;19.80;98.20;;;20.10;88.98;101383.84;5199811;28;20057;-52
2023/09/05 04:51:45;;;;;;;3.38;1.77;;;19.80;98.10;;;20.09;89.67;101390.03;5202875;28;20041;-50
2023/09/05 04:54:18;;;;;;;2.15;1.83;;;19.80;98.20;;;20.10;89.31;101396.19;5200484;28;20061;-52
2023/09/05 04:56:56;;;;;;;2.00;1.60;;;19.80;98.10;;;20.11;89.22;101392.66;5198665;28;20052;-51
2023/09/05 04:59:30;;;;;;;2.08;1.45;;;19.80;98.20;;;20.11;89.59;101400.59;5218022;28;20132;-52
2023/09/05 05:02:02;;;;;;;1.75;1.38;;;19.80;98.20;;;20.10;89.56;101391.78;5198589;28;20058;-51
2023/09/05 05:04:34;;;;;;;2.33;1.50;;;19.80;98.20;;;20.12;89.16;101408.53;5218758;28;20065;-52
2023/09/05 05:07:07;;;;;;;1.73;1.23;;;19.80;98.10;;;20.10;89.55;101399.72;5202579;28;20469;-51
2023/09/05 05:09:40;;;;;;;2.67;1.50;;;19.80;98.30;;;20.11;90.02;101403.25;5198807;28;20514;-52
2023/09/05 05:12:12;;;;;;;1.88;1.63;;;19.80;98.40;;;20.10;89.77;101405.03;5214891;28;20053;-51
2023/09/05 05:14:46;;;;;;;2.53;1.70;;;19.70;98.30;;;20.09;89.98;101413.84;5198486;28;20116;-51
2023/09/05 05:17:18;;;;;;;4.13;1.60;;;19.80;98.40;;;20.05;90.35;101418.22;5216151;28;20067;-50
2023/09/05 05:19:51;;;;;;;2.63;1.50;;;19.70;98.50;;;20.05;90.63;101419.97;5202539;28;20053;-52
2023/09/05 05:22:23;;;;;;;3.53;1.90;;;19.70;98.60;;;20.03;90.50;101425.28;5200189;28;20053;-51
2023/09/05 05:24:59;;;;;;;2.10;1.50;;;19.70;98.60;;;20.01;90.70;101420.81;5201805;28;20537;-51
2023/09/05 05:27:31;;;;;;;2.45;1.60;;;19.70;98.60;;;19.98;91.08;101427.00;5201790;28;20096;-52
2023/09/05 05:30:06;;;;;;;3.03;1.70;;;19.60;98.70;;;19.97;91.26;101425.22;5198242;28;20100;-50
2023/09/05 05:32:39;;;;;;;2.85;1.42;;;19.60;98.80;;;19.98;91.53;101426.13;5194234;28;20053;-50
2023/09/05 05:35:11;;;;;;;3.03;1.60;;;19.60;98.90;;;19.99;91.93;101433.16;5198606;28;20045;-52
2023/09/05 05:37:44;;;;;;;3.53;1.60;;;19.60;99.10;;;19.98;91.69;101436.69;5202139;28;20073;-51
2023/09/05 05:40:17;;;;;;;2.03;1.42;;;19.60;99.00;;;19.98;92.38;101434.06;5201646;28;20061;-52
2023/09/05 05:42:49;;;;;;;2.65;1.60;;;19.60;99.20;;;19.94;92.30;101435.78;5197934;28;20046;-51
2023/09/05 05:45:23;;;;;;;2.17;1.48;;;19.60;99.20;;;19.94;92.10;101432.25;5216150;28;20046;-51
2023/09/05 05:47:57;;;;;;;1.60;1.50;;;19.60;99.20;;;19.95;92.38;101434.00;5202517;28;20038;-52
2023/09/05 05:50:29;;;;;;;3.92;1.45;;;19.60;99.30;;;19.91;92.17;101433.13;5201080;28;20049;-53
2023/09/05 05:53:02;;;;;;;2.55;1.52;;;19.60;99.20;;;19.92;92.67;101436.66;5201249;28;20053;-51
2023/09/05 05:55:34;;;;;;;4.55;1.58;;;19.60;99.30;;;19.95;92.56;101439.31;5201141;28;20045;-52
2023/09/05 05:58:07;;;;;;;2.70;1.60;;;19.60;99.30;;;19.97;92.43;101443.75;5201533;28;20045;-51
2023/09/05 06:00:50;;;;;;;2.38;1.60;;;19.60;99.30;;;19.99;92.79;101447.28;5194603;28;20081;-51
2023/09/05 06:03:23;;;;;;;1.85;1.40;;;19.70;99.40;;;20.03;92.66;101448.22;5201118;28;20140;-52
2023/09/05 06:05:56;;;;;;;2.70;1.90;;;19.70;99.40;;;20.10;92.88;101447.38;5201566;28;20410;-51
2023/09/05 06:08:28;;;;;;;3.38;1.83;;;19.70;99.40;;;20.21;92.67;101445.69;5200726;28;20052;-49
2023/09/05 06:11:04;;;;;;;3.50;1.75;;;19.80;99.40;;;20.37;91.99;101451.03;5196724;28;20423;-51
2023/09/05 06:13:36;;;;;;;3.30;1.75;;;19.90;99.20;;;20.50;91.66;101451.13;5217207;28;20049;-51
2023/09/05 06:16:10;;;;;;;2.08;1.75;;;20.00;99.20;;;20.71;90.88;101446.78;5200973;28;20052;-49
2023/09/05 06:18:42;;;;;;;2.47;1.40;;;20.20;98.90;;;20.97;90.50;101444.22;5193515;28;20042;-51
2023/09/05 06:21:14;;;;;;;2.35;1.60;;;20.40;98.80;;;21.31;90.24;101443.41;5199753;28;20069;-50
2023/09/05 06:23:47;;;;;;;2.85;1.73;;;20.80;99.10;;;21.66;87.12;101439.91;5200623;28;20046;-50
2023/09/05 06:26:19;;;;;;;2.42;1.70;;;21.10;97.80;;;22.06;87.22;101447.81;5197981;28;20385;-52
2023/09/05 06:28:53;;;;;;;4.13;1.52;;;21.40;97.90;;;22.47;85.06;101451.25;5200736;28;20052;-51
2023/09/05 06:35:38;;;;;;;4.80;1.70;;;22.20;96.50;;;23.29;80.96;101447.31;5199720;28;20152;-51
2023/09/05 06:38:10;;;;;;;3.13;1.77;;;22.70;95.40;;;23.56;79.93;101446.19;5203728;28;20033;-50
2023/09/05 06:40:43;;;;;;;1.40;1.27;;;22.90;94.90;;;23.63;79.39;101443.50;5200802;28;20049;-52
2023/09/05 06:43:15;;;;;;;3.00;2.08;;;23.00;94.30;;;23.80;79.00;101452.25;5217159;28;20049;-51
2023/09/05 06:45:47;;;;;;;3.35;1.52;;;23.20;94.20;;;23.99;77.49;101456.47;5200924;28;20133;-50
2023/09/05 06:48:20;;;;;;;3.50;1.63;;;23.40;93.50;;;24.09;76.67;101451.94;5218200;28;20498;-51
2023/09/05 06:50:53;;;;;;;4.03;1.90;;;23.60;93.00;;;24.17;76.99;101455.38;5204760;28;20144;-50
2023/09/05 06:53:29;;;;;;;2.83;1.58;;;23.70;92.80;;;24.34;76.65;101449.91;5202377;28;20399;-51
2023/09/05 06:56:02;;;;;;;1.83;1.55;;;23.80;92.60;;;24.61;75.86;101454.91;5200954;28;20045;-51
2023/09/05 06:58:34;;;;;;;2.83;1.50;;;24.10;92.30;;;24.90;75.55;101467.84;5219860;28;20041;-52
2023/09/05 07:01:09;;;;;;;2.45;1.45;;;24.30;92.10;;;25.21;74.81;101471.91;5200036;28;20399;-51
2023/09/05 07:03:42;;;;;;;4.20;1.60;;;24.50;91.90;;;25.36;73.02;101477.88;5204432;28;20068;-52
2023/09/05 07:06:18;;;;;;;3.35;1.70;;;24.70;90.90;;;25.37;72.73;101474.31;5205568;28;20514;-51
2023/09/05 07:08:51;;;;;;;2.88;1.80;;;24.80;90.50;;;25.41;73.17;101476.00;5204574;28;20061;-51
2023/09/05 07:11:26;;;;;;;2.30;1.52;;;24.90;90.60;;;25.46;72.98;101473.28;5203492;28;20045;-50
2023/09/05 07:13:59;;;;;;;4.88;1.73;;;24.90;90.40;;;25.49;72.34;101467.88;5204278;28;20674;-52
2023/09/05 07:16:31;;;;;;;2.05;1.80;;;24.90;90.00;;;25.51;72.87;101467.88;5202407;28;20057;-51
2023/09/05 07:19:03;;;;;;;2.38;1.52;;;25.00;90.10;;;25.64;72.16;101462.31;5203980;28;20496;-52
2023/09/05 07:21:40;;;;;;;2.92;1.55;;;25.00;89.50;;;25.76;71.87;101457.69;5203391;28;20522;-51
2023/09/05 07:24:14;;;;;;;2.55;1.63;;;25.20;89.10;;;25.83;71.93;101456.69;5199553;28;20124;-51
2023/09/05 07:26:46;;;;;;;2.30;1.52;;;25.20;88.90;;;25.90;71.16;101458.34;5199846;28;20560;-51
2023/09/05 07:29:23;;;;;;;2.88;1.83;;;25.30;88.00;;;26.11;71.81;101463.28;5216789;28;20046;-52
2023/09/05 07:31:55;;;;;;;2.10;1.50;;;25.50;88.70;;;26.30;70.97;101469.13;5199459;28;20057;-51
2023/09/05 07:34:27;;;;;;;2.42;1.60;;;25.60;87.70;;;26.27;69.69;101477.19;5218218;28;20038;-52
2023/09/05 07:37:03;;;;;;;3.25;1.65;;;25.60;86.10;;;26.29;69.99;101477.19;5199688;28;20049;-51
2023/09/05 07:39:35;;;;;;;2.30;1.33;;;25.70;86.40;;;26.44;70.18;101471.56;5219009;28;20465;-51
2023/09/05 07:42:08;;;;;;;3.53;1.70;;;25.80;86.30;;;26.67;69.81;101468.41;5199481;28;20061;-50
2023/09/05 07:44:40;;;;;;;4.85;1.70;;;25.90;86.00;;;26.93;69.48;101474.09;5219275;28;20037;-51
2023/09/05 07:47:13;;;;;;;2.25;1.58;;;26.20;85.90;;;27.10;68.89;101484.44;5198872;28;20521;-52
2023/09/05 07:49:45;;;;;;;2.95;1.63;;;26.30;85.40;;;27.27;67.19;101471.56;5195551;28;20053;-50
2023/09/05 07:52:19;;;;;;;2.40;1.45;;;26.50;83.50;;;27.52;67.56;101468.28;5202402;28;20569;-49
2023/09/05 07:54:52;;;;;;;2.20;1.50;;;26.70;83.70;;;27.61;67.08;101473.41;5203332;28;20146;-51
2023/09/05 07:57:28;;;;;;;2.58;1.58;;;26.80;82.80;;;27.44;66.69;101470.25;5194644;28;20141;-50
2023/09/05 08:00:00;;;;;;;2.50;1.65;;;26.80;81.80;;;27.64;67.45;101472.44;5203124;28;20123;-52
2023/09/05 08:02:32;;;;;;;2.97;1.80;;;26.90;82.60;;;27.82;66.29;101474.69;5201096;28;20053;-51
2023/09/05 08:05:06;;;;;;;2.55;1.60;;;27.00;81.30;;;28.07;65.88;101482.94;5199514;28;20101;-52
2023/09/05 08:07:43;;;;;;;;;;;27.10;81.30;;;28.27;65.26;101480.59;5219043;28;20479;-51
2023/09/05 08:10:15;;;;;;;3.20;1.67;;;27.30;80.80;;;28.56;65.00;101484.28;5202258;28;19921;-51
2023/09/05 08:12:47;;;;;;;2.90;1.77;;;27.50;80.20;;;28.92;63.93;101477.84;5198666;28;20538;-52
2023/09/05 08:15:20;;;;;;;2.70;1.50;;;27.70;79.60;;;29.28;63.55;101476.75;5215865;28;20033;-51
2023/09/05 08:17:52;;;;;;;2.00;1.50;;;27.90;79.40;;;29.55;62.34;101477.69;5199316;28;20041;-52
2023/09/05 08:20:24;;;;;;;3.65;1.83;;;28.10;78.00;;;29.94;62.15;101470.09;5216473;28;20041;-52
2023/09/05 08:23:00;;;;;;;3.42;1.55;;;28.20;78.30;;;30.32;60.88;101482.19;5202160;28;20052;-53
2023/09/05 08:25:35;;;;;;;2.28;1.50;;;28.50;77.00;;;30.79;59.56;101482.25;5202648;28;20502;-52
2023/09/05 08:28:09;;;;;;;2.00;1.60;;;28.70;76.50;;;31.29;57.50;101472.16;5198725;28;20105;-52
2023/09/05 08:30:41;;;;;;;3.78;1.60;;;28.90;74.80;;;31.87;57.04;101472.44;5218779;28;20049;-53
2023/09/05 08:33:13;;;;;;;2.63;1.50;;;29.30;74.70;;;32.89;55.42;101479.56;5198186;28;20053;-52
2023/09/05 08:35:46;;;;;;;3.20;1.65;;;29.90;73.60;;;33.82;53.32;101484.88;5194979;28;20513;-53
2023/09/05 08:38:20;;;;;;;2.65;1.40;;;30.70;71.80;;;34.44;51.22;101475.34;5202103;28;20462;-52
2023/09/05 08:40:53;;;;;;;2.60;1.42;;;31.40;69.10;;;34.34;50.48;101471.34;5202757;28;20041;-51
2023/09/05 08:43:29;;;;;;;3.63;1.40;;;31.60;67.20;;;34.19;50.73;101478.47;5201796;28;20506;-52
2023/09/05 08:46:03;;;;;;;3.25;1.60;;;31.70;66.40;;;34.74;50.05;101468.22;5202746;28;20438;-51
2023/09/05 08:48:35;;;;;;;2.92;1.40;;;32.10;65.90;;;35.29;49.64;101472.38;5201967;28;20056;-51
2023/09/05 08:51:11;;;;;;;2.72;1.40;;;32.50;65.20;;;35.73;48.77;101464.34;5197658;28;20045;-52
2023/09/05 08:53:56;;;;;;;2.92;1.67;;;32.90;64.00;;;36.06;48.40;101475.03;5201867;28;20096;-52
2023/09/05 08:56:28;;;;;;;2.25;1.45;;;33.30;63.50;;;36.18;46.88;101473.38;5202102;28;20091;-53
2023/09/05 08:59:02;;;;;;;1.70;1.25;;;33.40;61.60;;;35.47;48.00;101470.44;5201641;28;20037;-52
2023/09/05 09:01:37;;;;;;;2.10;1.48;;;33.10;61.30;;;35.12;48.75;101459.78;5201213;28;20053;-52
2023/09/05 09:04:09;;;;;;;2.45;1.48;;;33.00;61.80;;;34.88;48.86;101461.16;5202212;28;20104;-52
2023/09/05 09:06:44;;;;;;;2.67;1.42;;;32.90;61.30;;;34.66;49.63;101462.38;5201568;28;20595;-51
2023/09/05 09:09:38;;;;;;;1.88;1.27;;;32.70;61.60;;;34.37;50.13;101457.66;5201848;28;20133;-51
2023/09/05 09:12:11;;;;;;;3.33;1.52;;;32.70;62.00;;;33.93;51.13;101452.78;5192754;28;20406;-52
2023/09/05 09:14:43;;;;;;;2.80;1.50;;;32.50;62.10;;;33.48;52.50;101465.00;5217567;28;20498;-52
2023/09/05 09:17:17;;;;;;;3.35;1.38;;;32.30;63.00;;;33.02;53.33;101456.44;5197809;28;20100;-52
2023/09/05 09:19:49;;;;;;;2.45;1.60;;;32.00;63.30;;;32.71;54.07;101453.41;5206528;28;20415;-52
2023/09/05 09:22:24;;;;;;;2.10;1.42;;;31.80;64.00;;;32.42;54.63;101444.88;5198896;28;20477;-52
2023/09/05 09:24:59;;;;;;;2.92;1.60;;;31.50;64.20;;;32.13;55.26;101451.53;5197798;28;20054;-50
2023/09/05 09:27:34;;;;;;;3.55;1.63;;;31.30;64.60;;;31.80;54.66;101456.59;5216098;28;20046;-50
2023/09/05 09:30:09;;;;;;;2.90;1.60;;;31.00;63.90;;;31.25;55.50;101448.13;5197868;28;20534;-50
2023/09/05 09:32:41;;;;;;;2.50;1.52;;;30.60;64.40;;;30.97;56.07;101442.94;5216543;28;20091;-50
2023/09/05 09:35:14;;;;;;;1.95;1.40;;;30.30;65.00;;;30.96;57.14;101439.38;5201269;28;20430;-52
2023/09/05 09:37:47;;;;;;;3.55;1.65;;;30.20;65.80;;;31.03;57.38;101438.19;5200965;28;20148;-53
2023/09/05 09:40:21;;;;;;;1.40;1.30;;;30.20;66.20;;;31.03;56.92;101440.88;5200860;28;20051;-51
2023/09/05 09:42:53;;;;;;;;;;;30.20;66.20;;;30.76;58.42;101434.78;5201517;28;20056;-50
2023/09/05 09:45:28;;;;;;;2.05;1.38;;;30.00;67.00;;;30.72;58.92;101434.97;5198126;28;19921;-51
2023/09/05 09:48:02;;;;;;;3.92;1.50;;;30.00;67.60;;;30.73;58.88;101428.66;5190131;28;20065;-51
2023/09/05 09:50:34;;;;;;;2.70;1.90;;;29.90;67.60;;;30.87;58.77;101431.69;5199008;28;20049;-56
2023/09/05 09:53:11;;;;;;;3.38;1.60;;;30.00;67.70;;;30.89;57.73;101419.03;5197402;28;20046;-52
2023/09/05 09:55:52;;;;;;;4.85;1.70;;;30.00;66.60;;;30.83;57.89;101446.19;5217310;28;20111;-51
2023/09/05 09:58:27;;;;;;;1.75;1.33;;;30.00;67.20;;;30.54;58.02;101407.81;5201312;28;20060;-52
2023/09/05 10:01:01;;;;;;;1.90;1.40;;;29.80;66.70;;;30.45;57.83;101421.63;5201302;28;20042;-50
2023/09/05 10:03:34;;;;;;;;;;;29.60;66.50;;;30.16;58.78;101413.75;5201692;28;20057;-53
2023/09/05 10:06:07;;;;;;;1.70;1.45;;;29.40;67.20;;;30.03;59.46;101409.72;5197678;28;20008;-50
2023/09/05 10:08:40;;;;;;;3.08;1.73;;;29.30;67.70;;;30.10;59.16;101411.28;5199809;28;20095;-51
2023/09/05 10:11:15;;;;;;;3.67;1.40;;;29.30;67.90;;;30.04;59.44;101411.47;5196609;28;20049;-53
2023/09/05 10:13:49;;;;;;;2.53;1.50;;;29.20;68.00;;;29.96;59.43;101409.94;5217274;28;20061;-50
2023/09/05 10:16:22;;;;;;;2.22;1.65;;;29.20;68.40;;;29.94;59.25;101417.22;5197345;28;20052;-52
2023/09/05 10:18:56;;;;;;;2.30;1.40;;;29.10;67.90;;;29.89;60.05;101407.56;5197323;28;20042;-51
2023/09/05 10:21:29;;;;;;;2.47;1.60;;;29.10;68.40;;;29.88;60.02;101400.41;5213641;28;20100;-51
2023/09/05 10:24:02;;;;;;;2.22;1.40;;;29.10;68.70;;;29.88;60.24;101398.63;5201070;28;20049;-50
2023/09/05 10:26:36;;;;;;;1.90;1.50;;;29.10;68.70;;;30.06;59.88;101398.84;5199009;28;20161;-50
2023/09/05 10:29:33;;;;;;;2.70;1.60;;;29.20;68.70;;;30.20;60.31;101396.59;5201078;28;20034;-52
2023/09/05 10:32:06;;;;;;;2.00;1.20;;;29.30;68.80;;;30.26;59.56;101396.38;5210815;28;20049;-51
2023/09/05 10:34:59;;;;;;;2.83;1.55;;;29.40;68.20;;;30.24;59.65;101398.22;5199222;28;20046;-52
2023/09/05 10:37:59;;;;;;;3.08;1.27;;;29.40;68.10;;;30.40;60.02;101399.41;5200864;28;20076;-53
2023/09/05 10:40:37;;;;;;;2.10;1.30;;;29.50;69.30;;;30.68;59.84;101403.72;5181072;28;20054;-51
2023/09/05 10:43:19;;;;;;;1.70;1.40;;;29.70;69.00;;;30.99;59.53;101396.19;5200626;28;20044;-54
2023/09/05 10:46:01;;;;;;;3.25;1.23;;;29.90;68.80;;;31.02;57.98;101397.88;5197263;28;20457;-53